createdAt,value
2019-02-06T00:00:53.186Z,0.00
2019-02-06T00:01:53.199Z,0.00
2019-02-06T00:02:53.202Z,0.00
2019-02-06T00:03:53.146Z,0.00
2019-02-06T00:04:53.142Z,0.00
2019-02-06T05:44:17.879Z,0.00
2019-02-06T05:45:17.821Z,0.00
2019-02-06T05:46:17.833Z,0.00
2019-02-06T05:47:17.799Z,0.00
2019-02-06T05:48:17.785Z,0.00
2019-02-06T05:49:17.798Z,0.00
2019-02-06T05:50:17.803Z,0.00
2019-02-06T05:51:17.784Z,0.00
2019-02-06T05:52:17.762Z,0.00
2019-02-06T05:53:17.762Z,0.00
2019-02-06T05:54:17.722Z,0.00
2019-02-06T05:55:17.730Z,0.00
2019-02-06T05:56:17.722Z,0.00
2019-02-06T05:57:17.707Z,0.00
2019-02-06T05:58:17.679Z,0.00
2019-02-06T05:59:17.722Z,0.00
2019-02-06T06:00:17.665Z,0.00
2019-02-06T06:01:17.680Z,0.00
2019-02-06T06:02:17.642Z,0.00
2019-02-06T06:03:17.635Z,0.00
2019-02-06T06:06:14.874Z,0.00
2019-02-06T06:07:14.831Z,0.00
2019-02-06T06:08:14.837Z,0.00
2019-02-06T06:09:14.821Z,0.00
2019-02-06T06:10:14.821Z,0.00
2019-02-06T06:11:14.807Z,0.00
2019-02-06T06:12:14.779Z,0.00
2019-02-06T06:13:18.255Z,0.00
2019-02-06T06:14:14.756Z,0.00
2019-02-06T06:15:14.763Z,0.00
2019-02-06T06:16:14.756Z,0.00
2019-02-06T06:17:14.778Z,0.00
2019-02-06T06:18:14.714Z,0.00
2019-02-06T06:19:14.735Z,0.00
2019-02-06T06:20:14.736Z,0.00
2019-02-06T06:21:14.679Z,0.00
2019-02-06T06:22:14.691Z,0.00
2019-02-06T06:23:14.660Z,0.00
2019-02-06T06:24:14.695Z,0.00
2019-02-06T06:25:14.651Z,0.00
2019-02-06T06:26:14.640Z,0.00
2019-02-06T06:27:14.651Z,0.00
2019-02-06T06:28:14.625Z,0.00
2019-02-06T06:29:14.610Z,0.00
2019-02-06T06:30:14.597Z,0.00
2019-02-06T06:31:14.598Z,0.00
2019-02-06T06:32:14.608Z,0.00
2019-02-06T06:33:14.552Z,4.00
2019-02-06T06:34:14.554Z,4.00
2019-02-06T06:35:14.551Z,4.00
2019-02-06T06:36:14.519Z,0.00
2019-02-06T06:37:14.541Z,4.00
2019-02-06T06:38:14.519Z,4.00
2019-02-06T06:39:14.512Z,4.00
2019-02-06T06:40:14.479Z,4.00
2019-02-06T06:41:14.498Z,8.00
2019-02-06T06:42:14.476Z,8.00
2019-02-06T06:43:16.278Z,8.00
2019-02-06T06:44:14.875Z,8.00
2019-02-06T06:45:14.423Z,12.00
2019-02-06T06:46:14.422Z,12.00
2019-02-06T06:47:14.441Z,16.00
2019-02-06T06:48:14.399Z,20.00
2019-02-06T06:49:14.379Z,20.00
2019-02-06T06:50:14.367Z,20.00
2019-02-06T06:51:14.355Z,24.00
2019-02-06T06:52:14.382Z,28.00
2019-02-06T06:53:14.338Z,32.00
2019-02-06T06:54:14.322Z,36.00
2019-02-06T06:55:14.315Z,40.00
2019-02-06T06:56:14.418Z,48.00
2019-02-06T06:57:14.311Z,52.00
2019-02-06T06:58:14.282Z,52.00
2019-02-06T06:59:14.268Z,60.00
2019-02-06T07:00:14.259Z,64.00
2019-02-06T07:01:14.256Z,68.00
2019-02-06T07:02:14.273Z,76.00
2019-02-06T07:03:14.229Z,84.00
2019-02-06T07:04:14.216Z,88.00
2019-02-06T07:05:14.206Z,96.00
2019-02-06T07:06:14.200Z,104.00
2019-02-06T07:07:14.204Z,112.00
2019-02-06T07:08:14.184Z,120.00
2019-02-06T07:09:14.169Z,132.00
2019-02-06T07:10:14.164Z,140.00
2019-02-06T07:11:14.144Z,156.00
2019-02-06T07:12:14.159Z,168.00
2019-02-06T07:13:14.120Z,180.00
2019-02-06T07:14:14.109Z,192.00
2019-02-06T07:15:14.105Z,212.00
2019-02-06T07:16:14.088Z,232.00
2019-02-06T07:17:14.111Z,252.00
2019-02-06T07:18:14.067Z,272.00
2019-02-06T07:19:14.059Z,296.00
2019-02-06T07:20:14.043Z,320.00
2019-02-06T07:21:14.037Z,344.00
2019-02-06T07:22:14.042Z,364.00
2019-02-06T07:23:14.024Z,392.00
2019-02-06T07:24:13.998Z,424.00
2019-02-06T07:25:13.988Z,452.00
2019-02-06T07:26:13.979Z,480.00
2019-02-06T07:27:13.994Z,512.00
2019-02-06T07:28:13.959Z,540.00
2019-02-06T07:29:13.947Z,568.00
2019-02-06T07:30:13.937Z,596.00
2019-02-06T07:31:13.925Z,628.00
2019-02-06T07:32:13.931Z,656.00
2019-02-06T07:33:13.931Z,692.00
2019-02-06T07:34:13.895Z,716.00
2019-02-06T07:35:13.882Z,744.00
2019-02-06T07:36:13.893Z,776.00
2019-02-06T07:37:13.880Z,804.00
2019-02-06T07:38:23.979Z,828.00
2019-02-06T07:39:14.855Z,848.00
2019-02-06T07:40:13.830Z,880.00
2019-02-06T07:41:13.814Z,896.00
2019-02-06T07:42:13.824Z,924.00
2019-02-06T07:43:13.796Z,952.00
2019-02-06T07:44:13.780Z,1000.00
2019-02-06T07:45:13.770Z,1036.00
2019-02-06T07:46:13.770Z,1072.00
2019-02-06T07:47:13.754Z,1104.00
2019-02-06T07:48:13.765Z,1128.00
2019-02-06T07:49:13.731Z,1148.00
2019-02-06T07:50:13.718Z,1176.00
2019-02-06T07:51:13.709Z,1200.00
2019-02-06T07:52:13.699Z,1216.00
2019-02-06T07:53:13.727Z,1228.00
2019-02-06T07:54:13.685Z,1236.00
2019-02-06T07:55:13.662Z,1248.00
2019-02-06T07:56:13.659Z,1248.00
2019-02-06T07:57:13.640Z,1244.00
2019-02-06T07:58:13.647Z,1240.00
2019-02-06T07:59:13.642Z,1236.00
2019-02-06T08:00:13.607Z,1240.00
2019-02-06T08:01:13.598Z,1248.00
2019-02-06T08:02:13.584Z,1244.00
2019-02-06T08:03:13.595Z,1228.00
2019-02-06T08:04:13.582Z,1212.00
2019-02-06T08:05:13.552Z,1184.00
2019-02-06T08:06:13.541Z,1156.00
2019-02-06T08:07:13.530Z,1136.00
2019-02-06T08:08:13.617Z,1104.00
2019-02-06T08:09:13.509Z,1076.00
2019-02-06T08:10:13.507Z,1060.00
2019-02-06T08:11:13.487Z,1060.00
2019-02-06T08:12:13.477Z,1064.00
2019-02-06T08:13:13.485Z,1068.00
2019-02-06T08:14:13.456Z,1072.00
2019-02-06T08:15:13.445Z,1088.00
2019-02-06T08:16:13.449Z,1112.00
2019-02-06T08:17:13.422Z,1136.00
2019-02-06T08:18:13.431Z,1160.00
2019-02-06T08:19:13.400Z,1184.00
2019-02-06T08:20:13.393Z,1212.00
2019-02-06T08:21:13.380Z,1236.00
2019-02-06T08:22:13.392Z,1256.00
2019-02-06T08:23:13.380Z,1272.00
2019-02-06T08:24:13.349Z,1292.00
2019-02-06T08:25:13.333Z,1304.00
2019-02-06T08:26:13.323Z,1308.00
2019-02-06T08:27:13.321Z,1292.00
2019-02-06T08:28:13.323Z,1272.00
2019-02-06T08:29:13.307Z,1240.00
2019-02-06T08:30:13.309Z,1212.00
2019-02-06T08:31:13.285Z,1176.00
2019-02-06T08:32:13.264Z,1148.00
2019-02-06T08:33:13.273Z,1120.00
2019-02-06T08:34:13.243Z,1104.00
2019-02-06T08:35:13.236Z,1100.00
2019-02-06T08:36:13.216Z,1104.00
2019-02-06T08:37:13.205Z,1120.00
2019-02-06T08:38:13.212Z,1144.00
2019-02-06T08:39:13.186Z,1168.00
2019-02-06T08:40:13.182Z,1192.00
2019-02-06T08:41:13.161Z,1220.00
2019-02-06T08:42:13.152Z,1236.00
2019-02-06T08:43:13.163Z,1256.00
2019-02-06T08:44:13.130Z,1264.00
2019-02-06T08:45:13.141Z,1272.00
2019-02-06T08:46:13.123Z,1280.00
2019-02-06T08:47:13.108Z,1284.00
2019-02-06T08:48:13.111Z,1296.00
2019-02-06T08:49:13.074Z,1312.00
2019-02-06T08:50:13.064Z,1320.00
2019-02-06T08:51:13.053Z,1332.00
2019-02-06T08:52:13.044Z,1344.00
2019-02-06T08:53:13.071Z,1360.00
2019-02-06T08:54:13.022Z,1384.00
2019-02-06T08:55:13.014Z,1400.00
2019-02-06T08:56:13.001Z,1424.00
2019-02-06T08:57:12.992Z,1448.00
2019-02-06T08:58:13.003Z,1480.00
2019-02-06T08:59:12.976Z,1512.00
2019-02-06T09:00:12.957Z,1544.00
2019-02-06T09:01:12.944Z,1576.00
2019-02-06T09:02:12.937Z,1604.00
2019-02-06T09:03:12.982Z,1632.00
2019-02-06T09:04:12.913Z,1656.00
2019-02-06T09:05:12.905Z,1676.00
2019-02-06T09:06:12.890Z,1708.00
2019-02-06T09:07:12.880Z,1748.00
2019-02-06T09:08:12.924Z,1804.00
2019-02-06T09:09:12.864Z,1864.00
2019-02-06T09:10:13.433Z,1932.00
2019-02-06T09:11:12.852Z,1972.00
2019-02-06T09:12:12.831Z,2072.00
2019-02-06T09:13:12.837Z,2156.00
2019-02-06T09:14:12.813Z,2232.00
2019-02-06T09:15:12.800Z,2320.00
2019-02-06T09:16:12.783Z,2392.00
2019-02-06T09:17:12.781Z,2472.00
2019-02-06T09:18:12.783Z,2544.00
2019-02-06T09:19:12.762Z,2612.00
2019-02-06T09:20:12.772Z,2680.00
2019-02-06T09:21:12.730Z,2736.00
2019-02-06T09:22:12.737Z,2792.00
2019-02-06T09:23:12.710Z,2840.00
2019-02-06T09:24:12.719Z,2876.00
2019-02-06T09:25:12.687Z,2908.00
2019-02-06T09:26:12.698Z,2964.00
2019-02-06T09:27:12.665Z,3020.00
2019-02-06T09:28:12.656Z,3076.00
2019-02-06T09:29:12.670Z,3128.00
2019-02-06T09:30:12.633Z,3188.00
2019-02-06T09:31:12.643Z,3240.00
2019-02-06T09:32:12.616Z,3292.00
2019-02-06T09:33:12.603Z,3332.00
2019-02-06T09:34:12.621Z,3368.00
2019-02-06T09:35:12.578Z,3384.00
2019-02-06T09:36:12.574Z,3424.00
2019-02-06T09:37:12.563Z,3484.00
2019-02-06T09:38:12.548Z,3544.00
2019-02-06T09:39:12.561Z,3632.00
2019-02-06T09:40:12.549Z,3744.00
2019-02-06T09:41:12.514Z,3868.00
2019-02-06T09:42:12.505Z,3952.00
2019-02-06T09:43:12.493Z,3980.00
2019-02-06T09:44:12.522Z,3996.00
2019-02-06T09:45:12.472Z,3972.00
2019-02-06T09:46:12.478Z,3956.00
2019-02-06T09:47:12.453Z,3956.00
2019-02-06T09:48:12.442Z,3964.00
2019-02-06T09:49:15.005Z,3956.00
2019-02-06T09:50:12.421Z,3976.00
2019-02-06T09:51:12.407Z,4020.00
2019-02-06T09:52:12.410Z,4092.00
2019-02-06T09:53:12.387Z,4188.00
2019-02-06T09:54:12.422Z,4292.00
2019-02-06T09:55:12.364Z,4384.00
2019-02-06T09:56:12.357Z,4484.00
2019-02-06T09:57:12.349Z,4540.00
2019-02-06T09:58:12.350Z,4704.00
2019-02-06T09:59:12.331Z,5244.00
2019-02-06T10:00:12.316Z,5240.00
2019-02-06T10:01:12.315Z,5312.00
2019-02-06T10:02:12.295Z,5272.00
2019-02-06T10:03:12.302Z,5136.00
2019-02-06T10:04:12.269Z,5168.00
2019-02-06T10:05:12.257Z,5216.00
2019-02-06T10:06:12.259Z,5524.00
2019-02-06T10:07:12.251Z,5880.00
2019-02-06T10:08:12.248Z,6176.00
2019-02-06T10:09:22.353Z,6164.00
2019-02-06T10:10:13.203Z,6852.00
2019-02-06T10:11:12.199Z,6944.00
2019-02-06T10:12:12.182Z,6464.00
2019-02-06T10:13:12.197Z,6440.00
2019-02-06T10:14:12.163Z,6248.00
2019-02-06T10:15:12.158Z,5968.00
2019-02-06T10:16:12.148Z,6196.00
2019-02-06T10:17:12.142Z,5844.00
2019-02-06T10:18:12.140Z,6156.00
2019-02-06T10:19:12.114Z,6212.00
2019-02-06T10:20:12.104Z,5716.00
2019-02-06T10:21:12.094Z,5672.00
2019-02-06T10:22:12.085Z,5392.00
2019-02-06T10:23:12.112Z,5240.00
2019-02-06T10:24:12.056Z,5244.00
2019-02-06T10:25:12.048Z,5208.00
2019-02-06T10:26:12.046Z,5292.00
2019-02-06T10:27:12.028Z,5388.00
2019-02-06T10:28:12.035Z,5432.00
2019-02-06T10:29:12.003Z,5564.00
2019-02-06T10:30:12.004Z,5644.00
2019-02-06T10:31:11.983Z,5760.00
2019-02-06T10:32:11.979Z,6032.00
2019-02-06T10:33:11.981Z,7268.00
2019-02-06T10:34:11.955Z,7732.00
2019-02-06T10:35:11.945Z,7640.00
2019-02-06T10:36:11.937Z,7288.00
2019-02-06T10:37:11.920Z,7232.00
2019-02-06T10:38:11.929Z,7616.00
2019-02-06T10:39:11.902Z,7416.00
2019-02-06T10:40:11.892Z,7464.00
2019-02-06T10:41:11.885Z,7948.00
2019-02-06T10:42:11.868Z,8452.00
2019-02-06T10:43:11.877Z,8788.00
2019-02-06T10:44:11.848Z,9152.00
2019-02-06T10:45:11.838Z,9812.00
2019-02-06T10:46:11.826Z,10352.00
2019-02-06T10:47:11.823Z,9596.00
2019-02-06T10:48:11.825Z,9480.00
2019-02-06T10:49:11.796Z,9364.00
2019-02-06T10:50:11.807Z,9388.00
2019-02-06T10:51:11.777Z,9712.00
2019-02-06T10:52:11.764Z,9496.00
2019-02-06T10:53:11.781Z,9904.00
2019-02-06T10:54:14.619Z,10388.00
2019-02-06T10:55:11.732Z,10180.00
2019-02-06T10:56:11.740Z,9584.00
2019-02-06T10:57:11.714Z,9652.00
2019-02-06T10:58:11.699Z,9616.00
2019-02-06T10:59:11.709Z,8884.00
2019-02-06T11:00:11.702Z,8224.00
2019-02-06T11:01:11.666Z,8248.00
2019-02-06T11:02:11.659Z,8184.00
2019-02-06T11:03:11.652Z,7488.00
2019-02-06T11:04:11.657Z,7120.00
2019-02-06T11:05:11.622Z,6748.00
2019-02-06T11:06:11.627Z,6472.00
2019-02-06T11:07:11.700Z,6472.00
2019-02-06T11:08:11.590Z,6292.00
2019-02-06T11:09:11.600Z,6060.00
2019-02-06T11:10:11.570Z,5704.00
2019-02-06T11:11:11.558Z,5668.00
2019-02-06T11:12:11.550Z,5712.00
2019-02-06T11:13:11.564Z,5920.00
2019-02-06T11:14:11.561Z,6232.00
2019-02-06T11:15:11.517Z,6504.00
2019-02-06T11:16:11.519Z,6608.00
2019-02-06T11:17:11.516Z,6440.00
2019-02-06T11:18:11.492Z,6108.00
2019-02-06T11:19:11.494Z,6076.00
2019-02-06T11:20:11.465Z,6280.00
2019-02-06T11:21:11.458Z,6616.00
2019-02-06T11:22:11.439Z,6556.00
2019-02-06T11:23:11.429Z,6812.00
2019-02-06T11:24:11.439Z,6308.00
2019-02-06T11:25:11.411Z,6100.00
2019-02-06T11:26:11.397Z,5952.00
2019-02-06T11:27:11.384Z,5840.00
2019-02-06T11:28:11.386Z,5460.00
2019-02-06T11:29:11.396Z,4988.00
2019-02-06T11:30:11.352Z,4776.00
2019-02-06T11:31:11.339Z,4776.00
2019-02-06T11:32:11.339Z,4880.00
2019-02-06T11:33:11.320Z,4964.00
2019-02-06T11:34:11.331Z,4784.00
2019-02-06T11:35:11.298Z,4844.00
2019-02-06T11:36:11.306Z,5144.00
2019-02-06T11:37:11.284Z,5348.00
2019-02-06T11:38:11.271Z,5368.00
2019-02-06T11:39:11.275Z,5228.00
2019-02-06T11:40:11.252Z,5268.00
2019-02-06T11:41:11.234Z,5232.00
2019-02-06T11:42:11.223Z,5296.00
2019-02-06T11:43:11.210Z,5388.00
2019-02-06T11:44:11.234Z,5700.00
2019-02-06T11:45:11.190Z,5800.00
2019-02-06T11:46:11.508Z,5800.00
2019-02-06T11:47:11.196Z,5820.00
2019-02-06T11:48:11.159Z,5912.00
2019-02-06T11:49:11.165Z,5928.00
2019-02-06T11:50:11.143Z,5896.00
2019-02-06T11:51:11.124Z,5848.00
2019-02-06T11:52:11.117Z,5880.00
2019-02-06T11:53:11.110Z,6172.00
2019-02-06T11:54:11.118Z,6724.00
2019-02-06T11:55:11.082Z,7532.00
2019-02-06T11:56:11.080Z,8284.00
2019-02-06T11:57:11.066Z,7848.00
2019-02-06T11:58:11.056Z,8704.00
2019-02-06T11:59:11.084Z,9204.00
2019-02-06T12:00:11.025Z,10624.00
2019-02-06T12:01:11.017Z,8756.00
2019-02-06T12:02:11.012Z,9216.00
2019-02-06T12:03:10.994Z,12300.00
2019-02-06T12:04:11.004Z,11428.00
2019-02-06T12:05:10.977Z,11072.00
2019-02-06T12:06:10.965Z,12636.00
2019-02-06T12:07:10.950Z,16096.00
2019-02-06T12:08:12.646Z,23872.00
2019-02-06T12:09:10.983Z,25760.00
2019-02-06T12:10:10.931Z,24960.00
2019-02-06T12:11:10.906Z,27200.00
2019-02-06T12:12:10.902Z,31296.00
2019-02-06T12:13:10.887Z,34336.00
2019-02-06T12:14:10.890Z,33920.00
2019-02-06T12:15:10.869Z,35264.00
2019-02-06T12:16:10.850Z,15456.00
2019-02-06T12:17:10.839Z,22208.00
2019-02-06T12:18:10.832Z,17216.00
2019-02-06T12:19:10.838Z,32608.00
2019-02-06T12:20:10.812Z,23840.00
2019-02-06T12:21:10.819Z,35040.00
2019-02-06T12:22:10.794Z,26080.00
2019-02-06T12:23:10.775Z,33408.00
2019-02-06T12:24:10.785Z,24704.00
2019-02-06T12:25:10.750Z,26400.00
2019-02-06T12:26:10.744Z,23616.00
2019-02-06T12:27:10.729Z,14720.00
2019-02-06T12:28:10.733Z,10068.00
2019-02-06T12:29:10.744Z,8360.00
2019-02-06T12:30:10.710Z,8884.00
2019-02-06T12:31:10.693Z,9064.00
2019-02-06T12:32:10.678Z,8560.00
2019-02-06T12:33:10.663Z,6472.00
2019-02-06T12:34:10.651Z,4284.00
2019-02-06T12:35:10.763Z,3484.00
2019-02-06T12:36:10.646Z,3276.00
2019-02-06T12:37:10.620Z,3136.00
2019-02-06T12:38:10.623Z,3048.00
2019-02-06T12:39:10.604Z,2948.00
2019-02-06T12:40:21.210Z,2968.00
2019-02-06T12:41:11.580Z,2824.00
2019-02-06T12:42:10.565Z,2896.00
2019-02-06T12:43:10.859Z,2884.00
2019-02-06T12:44:10.550Z,2936.00
2019-02-06T12:45:10.551Z,2756.00
2019-02-06T12:46:10.524Z,2640.00
2019-02-06T12:47:10.509Z,2588.00
2019-02-06T12:48:10.497Z,2464.00
2019-02-06T12:49:10.487Z,2784.00
2019-02-06T12:50:10.505Z,2764.00
2019-02-06T12:51:10.481Z,3156.00
2019-02-06T12:52:10.459Z,4212.00
2019-02-06T12:53:10.442Z,4468.00
2019-02-06T12:54:10.433Z,4396.00
2019-02-06T12:55:10.450Z,4544.00
2019-02-06T12:56:10.410Z,5000.00
2019-02-06T12:57:10.408Z,5476.00
2019-02-06T12:58:10.400Z,5608.00
2019-02-06T12:59:10.377Z,5872.00
2019-02-06T13:00:10.399Z,5972.00
2019-02-06T13:01:10.357Z,5792.00
2019-02-06T13:02:10.348Z,5260.00
2019-02-06T13:03:10.336Z,4988.00
2019-02-06T13:04:10.321Z,4920.00
2019-02-06T13:05:10.340Z,4824.00
2019-02-06T13:06:10.297Z,4388.00
2019-02-06T13:07:10.293Z,4716.00
2019-02-06T13:08:10.279Z,4812.00
2019-02-06T13:09:10.264Z,4632.00
2019-02-06T13:10:10.290Z,4336.00
2019-02-06T13:11:10.248Z,3832.00
2019-02-06T13:12:10.237Z,3660.00
2019-02-06T13:13:10.224Z,3204.00
2019-02-06T13:14:10.225Z,2676.00
2019-02-06T13:15:10.238Z,2664.00
2019-02-06T13:16:10.200Z,2764.00
2019-02-06T13:17:10.183Z,2288.00
2019-02-06T13:18:10.164Z,2016.00
2019-02-06T13:19:10.162Z,2036.00
2019-02-06T13:20:10.173Z,1708.00
2019-02-06T13:21:10.131Z,1720.00
2019-02-06T13:22:10.124Z,1868.00
2019-02-06T13:23:10.228Z,2080.00
2019-02-06T13:24:10.103Z,2052.00
2019-02-06T13:25:10.108Z,2008.00
2019-02-06T13:26:10.080Z,1868.00
2019-02-06T13:27:10.073Z,1944.00
2019-02-06T13:28:10.056Z,1996.00
2019-02-06T13:29:10.050Z,1848.00
2019-02-06T13:30:10.056Z,1892.00
2019-02-06T13:31:10.033Z,1956.00
2019-02-06T13:32:10.016Z,2024.00
2019-02-06T13:33:11.742Z,1936.00
2019-02-06T13:34:10.037Z,1648.00
2019-02-06T13:35:10.033Z,1656.00
2019-02-06T13:36:09.990Z,1712.00
2019-02-06T13:37:09.968Z,1876.00
2019-02-06T13:38:09.953Z,1872.00
2019-02-06T13:39:09.942Z,1824.00
2019-02-06T13:40:09.963Z,1688.00
2019-02-06T13:41:09.919Z,1644.00
2019-02-06T13:42:09.908Z,1820.00
2019-02-06T13:43:09.892Z,1860.00
2019-02-06T13:44:09.880Z,1848.00
2019-02-06T13:45:09.896Z,2028.00
2019-02-06T13:46:09.862Z,1952.00
2019-02-06T13:47:09.871Z,1944.00
2019-02-06T13:48:09.837Z,2112.00
2019-02-06T13:49:09.825Z,2076.00
2019-02-06T13:50:21.366Z,1952.00
2019-02-06T13:51:17.415Z,1868.00
2019-02-06T13:52:10.798Z,1972.00
2019-02-06T13:53:09.784Z,1908.00
2019-02-06T13:54:09.783Z,1696.00
2019-02-06T13:55:09.785Z,1628.00
2019-02-06T13:56:09.750Z,1624.00
2019-02-06T13:57:09.758Z,1496.00
2019-02-06T13:58:19.730Z,1364.00
2019-02-06T13:59:10.730Z,1332.00
2019-02-06T14:00:09.731Z,1312.00
2019-02-06T14:01:09.700Z,1312.00
2019-02-06T14:02:09.689Z,1288.00
2019-02-06T14:03:09.677Z,1292.00
2019-02-06T14:04:09.673Z,1276.00
2019-02-06T14:05:09.675Z,1256.00
2019-02-06T14:06:11.519Z,1268.00
2019-02-06T14:07:09.632Z,1296.00
2019-02-06T14:08:09.627Z,1116.00
2019-02-06T14:09:09.607Z,1024.00
2019-02-06T14:10:09.610Z,1032.00
2019-02-06T14:11:09.608Z,1008.00
2019-02-06T14:12:09.574Z,1116.00
2019-02-06T14:13:09.564Z,1156.00
2019-02-06T14:14:09.575Z,1192.00
2019-02-06T14:15:09.541Z,1176.00
2019-02-06T14:16:09.554Z,1088.00
2019-02-06T14:17:09.526Z,1016.00
2019-02-06T14:18:09.518Z,976.00
2019-02-06T14:19:09.504Z,1156.00
2019-02-06T14:20:09.500Z,1244.00
2019-02-06T14:21:09.503Z,1320.00
2019-02-06T14:22:10.032Z,1280.00
2019-02-06T14:23:09.457Z,1200.00
2019-02-06T14:24:09.459Z,1224.00
2019-02-06T14:25:09.449Z,1264.00
2019-02-06T14:26:09.446Z,1324.00
2019-02-06T14:27:09.416Z,1336.00
2019-02-06T14:28:09.408Z,1264.00
2019-02-06T14:29:09.391Z,1192.00
2019-02-06T14:30:09.378Z,1080.00
2019-02-06T14:31:09.398Z,1048.00
2019-02-06T14:32:09.369Z,1048.00
2019-02-06T14:33:09.360Z,1040.00
2019-02-06T14:34:09.342Z,888.00
2019-02-06T14:35:09.327Z,748.00
2019-02-06T14:36:09.332Z,804.00
2019-02-06T14:37:09.316Z,984.00
2019-02-06T14:38:09.312Z,1104.00
2019-02-06T14:39:09.280Z,1084.00
2019-02-06T14:40:09.280Z,1052.00
2019-02-06T14:41:09.288Z,1048.00
2019-02-06T14:42:09.249Z,1036.00
2019-02-06T14:43:09.242Z,1012.00
2019-02-06T14:44:09.255Z,916.00
2019-02-06T14:45:09.322Z,876.00
2019-02-06T14:46:09.232Z,1076.00
2019-02-06T14:47:09.208Z,1108.00
2019-02-06T14:48:09.183Z,1020.00
2019-02-06T14:49:09.212Z,944.00
2019-02-06T14:50:09.160Z,876.00
2019-02-06T14:51:09.182Z,788.00
2019-02-06T14:52:09.138Z,688.00
2019-02-06T14:53:09.124Z,688.00
2019-02-06T14:54:09.115Z,804.00
2019-02-06T14:55:09.106Z,760.00
2019-02-06T14:56:09.120Z,640.00
2019-02-06T14:57:09.082Z,596.00
2019-02-06T14:58:09.072Z,596.00
2019-02-06T14:59:09.062Z,600.00
2019-02-06T15:00:09.053Z,580.00
2019-02-06T15:01:09.060Z,532.00
2019-02-06T15:02:09.025Z,508.00
2019-02-06T15:03:09.017Z,488.00
2019-02-06T15:04:09.001Z,460.00
2019-02-06T15:05:08.991Z,432.00
2019-02-06T15:06:09.003Z,420.00
2019-02-06T15:07:08.971Z,404.00
2019-02-06T15:08:08.958Z,416.00
2019-02-06T15:09:08.950Z,404.00
2019-02-06T15:10:08.938Z,384.00
2019-02-06T15:11:19.170Z,396.00
2019-02-06T15:12:09.925Z,428.00
2019-02-06T15:13:08.911Z,480.00
2019-02-06T15:14:08.899Z,508.00
2019-02-06T15:15:08.884Z,512.00
2019-02-06T15:16:08.902Z,500.00
2019-02-06T15:17:08.864Z,500.00
2019-02-06T15:18:08.853Z,520.00
2019-02-06T15:19:08.851Z,560.00
2019-02-06T15:20:08.834Z,588.00
2019-02-06T15:21:08.842Z,648.00
2019-02-06T15:22:08.823Z,676.00
2019-02-06T15:23:08.798Z,684.00
2019-02-06T15:24:08.785Z,628.00
2019-02-06T15:25:08.786Z,624.00
2019-02-06T15:26:08.784Z,664.00
2019-02-06T15:27:08.757Z,684.00
2019-02-06T15:28:08.756Z,664.00
2019-02-06T15:29:08.728Z,592.00
2019-02-06T15:30:08.719Z,504.00
2019-02-06T15:31:08.727Z,460.00
2019-02-06T15:32:08.696Z,444.00
2019-02-06T15:33:08.687Z,436.00
2019-02-06T15:34:08.695Z,428.00
2019-02-06T15:35:08.664Z,420.00
2019-02-06T15:36:08.675Z,404.00
2019-02-06T15:37:08.646Z,380.00
2019-02-06T15:38:08.631Z,368.00
2019-02-06T15:39:08.619Z,372.00
2019-02-06T15:40:08.627Z,356.00
2019-02-06T15:41:08.662Z,348.00
2019-02-06T15:42:08.589Z,360.00
2019-02-06T15:43:08.582Z,372.00
2019-02-06T15:44:08.565Z,376.00
2019-02-06T15:45:08.566Z,368.00
2019-02-06T15:46:08.549Z,372.00
2019-02-06T15:47:08.554Z,380.00
2019-02-06T15:48:10.824Z,392.00
2019-02-06T15:49:08.520Z,384.00
2019-02-06T15:50:08.506Z,384.00
2019-02-06T15:51:08.494Z,372.00
2019-02-06T15:52:08.513Z,352.00
2019-02-06T15:53:08.474Z,324.00
2019-02-06T15:54:08.480Z,300.00
2019-02-06T15:55:08.481Z,288.00
2019-02-06T15:56:08.436Z,288.00
2019-02-06T15:57:08.447Z,292.00
2019-02-06T15:58:11.268Z,288.00
2019-02-06T15:59:08.403Z,276.00
2019-02-06T16:00:08.396Z,260.00
2019-02-06T16:01:08.381Z,244.00
2019-02-06T16:02:08.393Z,240.00
2019-02-06T16:03:08.358Z,232.00
2019-02-06T16:04:08.352Z,220.00
2019-02-06T16:05:08.345Z,212.00
2019-02-06T16:06:08.333Z,204.00
2019-02-06T16:07:08.340Z,200.00
2019-02-06T16:08:08.382Z,204.00
2019-02-06T16:09:08.296Z,208.00
2019-02-06T16:10:08.286Z,196.00
2019-02-06T16:11:08.272Z,184.00
2019-02-06T16:12:08.281Z,172.00
2019-02-06T16:13:08.266Z,160.00
2019-02-06T16:14:08.242Z,144.00
2019-02-06T16:15:08.247Z,128.00
2019-02-06T16:16:08.271Z,116.00
2019-02-06T16:17:08.249Z,104.00
2019-02-06T16:18:08.199Z,96.00
2019-02-06T16:19:08.202Z,88.00
2019-02-06T16:20:08.181Z,80.00
2019-02-06T16:21:08.185Z,76.00
2019-02-06T16:22:08.174Z,72.00
2019-02-06T16:23:08.146Z,64.00
2019-02-06T16:24:08.138Z,60.00
2019-02-06T16:25:08.122Z,56.00
2019-02-06T16:26:08.109Z,52.00
2019-02-06T16:27:08.121Z,52.00
2019-02-06T16:28:08.094Z,52.00
2019-02-06T16:29:08.080Z,48.00
2019-02-06T16:30:08.082Z,48.00
2019-02-06T16:31:08.057Z,44.00
2019-02-06T16:32:08.064Z,40.00
2019-02-06T16:33:08.033Z,36.00
2019-02-06T16:34:08.024Z,36.00
2019-02-06T16:35:08.012Z,32.00
2019-02-06T16:36:08.008Z,32.00
2019-02-06T16:37:08.013Z,28.00
2019-02-06T16:38:07.981Z,24.00
2019-02-06T16:39:07.981Z,24.00
2019-02-06T16:40:07.959Z,20.00
2019-02-06T16:41:07.954Z,20.00
2019-02-06T16:42:07.963Z,16.00
2019-02-06T16:43:07.924Z,12.00
2019-02-06T16:44:07.922Z,12.00
2019-02-06T16:45:07.903Z,12.00
2019-02-06T16:46:07.893Z,8.00
2019-02-06T16:47:07.901Z,8.00
2019-02-06T16:48:07.884Z,8.00
2019-02-06T16:49:07.861Z,4.00
2019-02-06T16:50:07.849Z,8.00
2019-02-06T16:51:07.843Z,4.00
2019-02-06T16:52:07.850Z,4.00
2019-02-06T16:53:07.841Z,0.00
2019-02-06T16:54:07.819Z,4.00
2019-02-06T16:55:07.802Z,4.00
2019-02-06T16:56:07.783Z,4.00
2019-02-06T16:57:07.777Z,0.00
2019-02-06T16:58:07.782Z,0.00
2019-02-06T16:59:07.760Z,0.00
2019-02-06T17:00:07.743Z,0.00
2019-02-06T17:01:07.737Z,0.00
2019-02-06T17:02:07.728Z,0.00
2019-02-06T17:03:07.730Z,0.00
2019-02-06T17:04:07.716Z,0.00
2019-02-06T17:05:07.697Z,0.00
2019-02-06T17:06:07.680Z,0.00
2019-02-06T17:07:07.668Z,0.00
2019-02-06T17:08:07.696Z,0.00
2019-02-06T17:09:07.654Z,0.00
2019-02-06T17:10:07.634Z,0.00
2019-02-06T17:11:07.626Z,0.00
2019-02-06T17:12:07.621Z,0.00
2019-02-06T17:13:07.622Z,0.00
2019-02-06T17:14:07.593Z,0.00
2019-02-06T17:15:07.589Z,0.00
2019-02-06T17:16:07.573Z,0.00
2019-02-06T17:17:07.562Z,0.00
2019-02-06T17:18:07.581Z,0.00
2019-02-06T17:19:07.539Z,0.00
2019-02-06T17:20:07.533Z,0.00
2019-02-06T17:21:07.527Z,0.00
2019-02-06T17:22:07.538Z,0.00
2019-02-06T17:23:07.520Z,0.00
2019-02-06T17:24:07.496Z,0.00
2019-02-06T17:25:07.478Z,0.00
2019-02-06T17:26:07.468Z,0.00
2019-02-06T17:27:07.457Z,0.00
2019-02-06T17:28:07.467Z,0.00
2019-02-06T17:29:07.448Z,0.00
2019-02-06T17:30:07.434Z,0.00
2019-02-06T17:31:07.420Z,0.00
2019-02-06T17:32:07.406Z,0.00
2019-02-06T17:33:07.415Z,0.00
2019-02-06T17:34:07.384Z,0.00
2019-02-06T17:35:07.384Z,0.00
2019-02-06T17:36:07.365Z,0.00
2019-02-06T17:37:07.357Z,0.00
2019-02-06T17:38:07.368Z,0.00
2019-02-06T17:39:07.333Z,0.00
2019-02-06T17:40:07.323Z,0.00
2019-02-06T17:41:07.316Z,0.00
2019-02-06T17:42:15.415Z,0.00
2019-02-06T17:43:08.320Z,0.00
2019-02-06T17:44:07.282Z,0.00
2019-02-06T17:45:07.276Z,0.00
2019-02-06T17:46:07.262Z,0.00
2019-02-06T17:47:07.272Z,0.00
2019-02-06T17:48:07.263Z,0.00
2019-02-06T17:49:07.231Z,0.00
2019-02-06T17:50:07.227Z,0.00
2019-02-06T17:51:07.211Z,0.00
2019-02-06T17:52:07.209Z,0.00
2019-02-06T17:53:07.207Z,0.00
2019-02-06T17:54:07.181Z,0.00
2019-02-06T17:55:07.168Z,0.00
2019-02-06T17:56:07.170Z,0.00
2019-02-06T17:57:07.147Z,0.00
2019-02-06T17:58:07.162Z,0.00
2019-02-06T17:59:07.125Z,0.00
2019-02-06T18:00:07.118Z,0.00
2019-02-06T18:01:07.108Z,0.00
2019-02-06T18:02:07.111Z,0.00
2019-02-06T18:03:07.112Z,0.00
2019-02-06T18:04:07.081Z,0.00
2019-02-06T18:05:07.066Z,0.00
2019-02-06T18:06:07.055Z,0.00